createdAt,value
2017-11-28T00:01:16.171Z,6.93
2017-11-28T00:03:43.547Z,6.95
2017-11-28T00:06:10.928Z,7.11
2017-11-28T00:08:38.311Z,6.97
2017-11-28T00:11:05.705Z,6.97
2017-11-28T00:13:33.072Z,6.94
2017-11-28T00:16:00.456Z,7.02
2017-11-28T00:18:27.831Z,6.90
2017-11-28T00:20:55.218Z,6.95
2017-11-28T00:23:22.598Z,7.01
2017-11-28T00:25:50.004Z,7.07
2017-11-28T00:28:17.453Z,6.89
2017-11-28T00:30:44.820Z,7.04
2017-11-28T00:33:12.207Z,7.07
2017-11-28T00:35:39.701Z,7.02
2017-11-28T00:38:07.124Z,6.84
2017-11-28T00:40:34.500Z,6.90
2017-11-28T00:43:01.936Z,6.82
2017-11-28T00:45:29.394Z,6.73
2017-11-28T00:47:56.784Z,6.75
2017-11-28T00:50:24.162Z,6.70
2017-11-28T00:52:51.659Z,6.77
2017-11-28T00:55:19.039Z,6.68
2017-11-28T00:57:46.463Z,6.60
2017-11-28T01:00:13.851Z,6.56
2017-11-28T01:02:41.240Z,6.71
2017-11-28T01:05:08.611Z,6.67
2017-11-28T01:07:35.997Z,6.64
2017-11-28T01:10:03.448Z,6.64
2017-11-28T01:12:30.820Z,6.60
2017-11-28T01:14:58.202Z,6.65
2017-11-28T01:17:25.588Z,6.56
2017-11-28T01:19:52.978Z,6.46
2017-11-28T01:22:20.360Z,6.37
2017-11-28T01:24:47.744Z,6.56
2017-11-28T01:27:15.238Z,6.58
2017-11-28T01:29:42.676Z,6.40
2017-11-28T01:32:10.072Z,6.38
2017-11-28T01:34:37.495Z,6.20
2017-11-28T01:37:04.880Z,6.26
2017-11-28T01:39:32.271Z,6.21
2017-11-28T01:41:59.647Z,6.18
2017-11-28T01:44:27.114Z,6.23
2017-11-28T01:46:54.501Z,6.14
2017-11-28T01:49:21.877Z,6.09
2017-11-28T01:51:49.267Z,6.08
2017-11-28T01:54:16.663Z,6.22
2017-11-28T01:56:44.093Z,6.31
2017-11-28T01:59:11.480Z,6.17
2017-11-28T02:01:38.905Z,5.97
2017-11-28T02:04:06.287Z,6.08
2017-11-28T02:06:33.712Z,6.07
2017-11-28T02:09:01.098Z,6.01
2017-11-28T02:11:28.523Z,5.88
2017-11-28T02:13:55.904Z,5.93
2017-11-28T02:16:23.300Z,6.00
2017-11-28T02:18:50.672Z,5.92
2017-11-28T02:21:18.123Z,5.91
2017-11-28T02:23:45.515Z,5.91
2017-11-28T02:26:12.887Z,5.86
2017-11-28T02:28:40.289Z,5.93
2017-11-28T02:31:07.667Z,5.88
2017-11-28T02:33:35.043Z,5.83
2017-11-28T02:36:02.439Z,5.85
2017-11-28T02:38:29.807Z,5.95
2017-11-28T02:41:09.255Z,5.91
2017-11-28T02:43:36.640Z,5.80
2017-11-28T02:46:07.040Z,5.87
2017-11-28T02:48:34.415Z,5.84
2017-11-28T02:51:01.809Z,5.82
2017-11-28T02:53:29.206Z,5.83
2017-11-28T02:55:58.300Z,5.92
2017-11-28T02:58:26.352Z,5.84
2017-11-28T03:00:56.295Z,5.79
2017-11-28T03:03:23.684Z,5.68
2017-11-28T03:05:51.058Z,5.65
2017-11-28T03:08:18.468Z,5.68
2017-11-28T03:10:48.511Z,5.73
2017-11-28T03:13:17.216Z,5.80
2017-11-28T03:15:46.965Z,5.87
2017-11-28T03:18:19.047Z,5.86
2017-11-28T03:20:47.361Z,5.90
2017-11-28T03:26:12.264Z,6.05
2017-11-28T03:28:59.287Z,5.99
2017-11-28T03:31:26.680Z,5.88
2017-11-28T03:34:08.995Z,5.89
2017-11-28T03:36:36.452Z,5.82
2017-11-28T03:39:03.839Z,5.73
2017-11-28T03:41:31.244Z,5.77
2017-11-28T03:43:58.615Z,5.80
2017-11-28T03:46:26.774Z,5.72
2017-11-28T03:49:08.940Z,5.59
2017-11-28T03:51:36.324Z,5.50
2017-11-28T03:54:03.700Z,5.57
2017-11-28T03:56:31.085Z,5.55
2017-11-28T03:58:58.524Z,5.56
2017-11-28T04:01:25.929Z,5.44
2017-11-28T04:03:53.300Z,5.49
2017-11-28T04:06:20.777Z,5.57
2017-11-28T04:08:48.163Z,5.67
2017-11-28T04:11:15.543Z,5.59
2017-11-28T04:13:42.936Z,5.65
2017-11-28T04:16:10.328Z,5.75
2017-11-28T04:18:37.753Z,5.76
2017-11-28T04:21:05.212Z,5.78
2017-11-28T04:23:32.659Z,5.80
2017-11-28T04:26:00.128Z,5.97
2017-11-28T04:28:27.526Z,6.01
2017-11-28T04:30:54.899Z,5.96
2017-11-28T04:33:22.279Z,5.93
2017-11-28T04:35:49.747Z,5.79
2017-11-28T04:38:17.212Z,5.73
2017-11-28T04:40:44.580Z,5.80
2017-11-28T04:43:11.981Z,5.88
2017-11-28T04:45:39.352Z,5.73
2017-11-28T04:48:06.728Z,5.81
2017-11-28T04:50:34.111Z,6.02
2017-11-28T04:53:01.502Z,6.15
2017-11-28T04:55:28.884Z,6.13
2017-11-28T04:57:56.276Z,6.06
2017-11-28T05:00:23.666Z,6.02
2017-11-28T05:02:51.035Z,6.11
2017-11-28T05:05:18.428Z,6.14
2017-11-28T05:07:45.810Z,6.09
2017-11-28T05:10:13.195Z,6.04
2017-11-28T05:12:40.576Z,5.92
2017-11-28T05:15:07.964Z,5.88
2017-11-28T05:17:35.351Z,5.90
2017-11-28T05:20:02.748Z,5.96
2017-11-28T05:22:30.118Z,6.00
2017-11-28T05:24:57.495Z,5.82
2017-11-28T05:27:24.907Z,5.78
2017-11-28T05:29:52.305Z,5.90
2017-11-28T05:32:19.681Z,5.82
2017-11-28T05:34:47.083Z,5.82
2017-11-28T05:37:14.463Z,5.73
2017-11-28T05:39:41.852Z,5.78
2017-11-28T05:42:09.235Z,5.66
2017-11-28T05:44:36.679Z,5.60
2017-11-28T05:47:04.076Z,5.61
2017-11-28T05:49:31.473Z,5.65
2017-11-28T05:51:58.858Z,5.51
2017-11-28T05:54:26.243Z,5.49
2017-11-28T05:56:53.636Z,5.44
2017-11-28T05:59:21.064Z,5.60
2017-11-28T06:01:48.452Z,5.60
2017-11-28T06:04:15.828Z,5.77
2017-11-28T06:06:43.222Z,5.63
2017-11-28T06:09:10.609Z,5.78
2017-11-28T06:11:37.983Z,5.85
2017-11-28T06:14:05.363Z,6.05
2017-11-28T06:16:33.294Z,5.88
2017-11-28T06:19:00.686Z,5.86
2017-11-28T06:21:28.069Z,6.00
2017-11-28T06:23:55.456Z,5.85
2017-11-28T06:26:22.847Z,5.93
2017-11-28T06:28:50.222Z,5.84
2017-11-28T06:31:17.605Z,5.93
2017-11-28T06:33:45.012Z,5.84
2017-11-28T06:36:12.456Z,5.93
2017-11-28T06:38:39.849Z,5.91
2017-11-28T06:41:07.240Z,5.71
2017-11-28T06:43:34.631Z,5.75
2017-11-28T06:46:02.004Z,5.84
2017-11-28T06:48:29.391Z,5.85
2017-11-28T06:50:56.779Z,5.82
2017-11-28T06:53:24.163Z,5.75
2017-11-28T06:55:51.556Z,5.83
2017-11-28T06:58:18.945Z,5.83
2017-11-28T07:00:46.367Z,5.88
2017-11-28T07:03:13.803Z,5.79
2017-11-28T07:05:41.184Z,5.71
2017-11-28T07:08:08.567Z,5.60
2017-11-28T07:10:35.977Z,5.63
2017-11-28T07:13:03.372Z,5.69
2017-11-28T07:15:30.751Z,5.79
2017-11-28T07:17:58.136Z,5.76
2017-11-28T07:20:25.511Z,5.74
2017-11-28T07:22:52.895Z,5.71
2017-11-28T07:25:20.287Z,5.78
2017-11-28T07:27:47.680Z,5.82
2017-11-28T07:30:15.056Z,5.83
2017-11-28T07:32:42.479Z,5.93
2017-11-28T07:35:09.903Z,5.81
2017-11-28T07:37:37.292Z,5.82
2017-11-28T07:40:04.675Z,5.90
2017-11-28T07:42:32.070Z,5.99
2017-11-28T07:44:59.449Z,5.99
2017-11-28T07:47:26.843Z,6.08
2017-11-28T07:49:54.207Z,6.06
2017-11-28T07:52:21.595Z,6.13
2017-11-28T07:54:48.984Z,6.21
2017-11-28T07:57:16.368Z,6.12
2017-11-28T07:59:43.739Z,6.13
2017-11-28T08:02:11.135Z,6.17
2017-11-28T08:04:38.510Z,6.29
2017-11-28T08:07:05.928Z,6.35
2017-11-28T08:09:33.324Z,6.39
2017-11-28T08:12:00.712Z,6.39
2017-11-28T08:14:28.095Z,6.29
2017-11-28T08:16:55.484Z,6.25
2017-11-28T08:19:22.868Z,6.24
2017-11-28T08:21:50.260Z,6.18
2017-11-28T08:24:17.663Z,6.21
2017-11-28T08:26:45.052Z,6.29
2017-11-28T08:29:12.443Z,6.27
2017-11-28T08:31:39.834Z,6.38
2017-11-28T08:34:07.221Z,6.35
2017-11-28T08:36:34.607Z,6.34
2017-11-28T08:39:02.008Z,6.32
2017-11-28T08:41:29.368Z,6.33
2017-11-28T08:43:56.752Z,6.49
2017-11-28T08:46:24.127Z,6.50
2017-11-28T08:48:51.516Z,6.58
2017-11-28T08:51:18.892Z,6.50
2017-11-28T08:53:46.293Z,6.58
2017-11-28T08:56:13.684Z,6.76
2017-11-28T08:58:41.074Z,6.74
2017-11-28T09:01:08.461Z,6.63
2017-11-28T09:03:35.848Z,6.58
2017-11-28T09:06:03.231Z,6.49
2017-11-28T09:08:30.620Z,6.65
2017-11-28T09:10:58.001Z,6.70
2017-11-28T09:13:25.395Z,6.77
2017-11-28T09:15:52.772Z,6.69
2017-11-28T09:18:20.158Z,6.66
2017-11-28T09:20:47.541Z,6.74
2017-11-28T09:23:14.931Z,6.69
2017-11-28T09:25:42.307Z,6.68
2017-11-28T09:28:09.691Z,6.81
2017-11-28T09:30:37.071Z,6.81
2017-11-28T09:33:04.455Z,6.74
2017-11-28T09:35:31.917Z,6.73
2017-11-28T09:37:59.304Z,6.76
2017-11-28T09:40:26.686Z,6.86
2017-11-28T09:42:54.093Z,6.90
2017-11-28T09:45:21.479Z,6.80
2017-11-28T09:47:48.905Z,6.90
2017-11-28T09:50:16.284Z,6.75
2017-11-28T09:52:43.677Z,6.87
2017-11-28T09:55:11.072Z,7.03
2017-11-28T09:57:38.448Z,6.96
2017-11-28T10:00:05.839Z,7.03
2017-11-28T10:02:33.229Z,6.93
2017-11-28T10:05:00.660Z,7.19
2017-11-28T10:07:28.123Z,7.18
2017-11-28T10:09:55.517Z,7.04
2017-11-28T10:12:22.900Z,7.10
2017-11-28T10:14:50.294Z,6.98
2017-11-28T10:17:17.760Z,7.01
2017-11-28T10:19:45.143Z,6.97
2017-11-28T10:22:12.524Z,6.85
2017-11-28T10:24:39.918Z,6.84
2017-11-28T10:27:07.291Z,6.81
2017-11-28T10:29:34.685Z,6.89
2017-11-28T10:32:02.072Z,6.87
2017-11-28T10:34:29.527Z,7.01
2017-11-28T10:36:56.903Z,7.08
2017-11-28T10:39:24.300Z,7.26
2017-11-28T10:41:51.691Z,7.17
2017-11-28T10:44:19.065Z,7.11
2017-11-28T10:49:20.360Z,7.31
2017-11-28T10:51:47.735Z,7.16
2017-11-28T10:54:15.112Z,7.05
2017-11-28T10:56:42.508Z,6.91
2017-11-28T10:59:09.929Z,6.92
2017-11-28T11:01:37.399Z,6.95
2017-11-28T11:04:04.776Z,7.08
2017-11-28T11:06:32.182Z,7.17
2017-11-28T11:08:59.593Z,7.21
2017-11-28T11:11:26.971Z,7.23
2017-11-28T11:13:54.427Z,7.22
2017-11-28T11:16:21.872Z,7.13
2017-11-28T11:18:49.251Z,7.24
2017-11-28T11:21:16.627Z,7.14
2017-11-28T11:23:43.998Z,7.17
2017-11-28T11:26:11.507Z,7.17
2017-11-28T11:28:38.944Z,7.18
2017-11-28T11:31:06.328Z,7.15
2017-11-28T11:33:33.758Z,7.35
2017-11-28T11:36:01.232Z,7.46
2017-11-28T11:38:28.607Z,7.40
2017-11-28T11:40:56.016Z,7.46
2017-11-28T11:43:23.394Z,7.48
2017-11-28T11:45:50.776Z,7.50
2017-11-28T11:48:18.156Z,7.54
2017-11-28T11:50:45.544Z,7.58
2017-11-28T11:53:12.923Z,7.57
2017-11-28T11:55:40.314Z,7.61
2017-11-28T11:58:07.697Z,7.50
2017-11-28T12:00:35.075Z,7.59
2017-11-28T12:03:02.464Z,7.65
2017-11-28T12:05:29.864Z,7.46
2017-11-28T12:07:57.315Z,7.52
2017-11-28T12:10:24.780Z,7.58
2017-11-28T12:12:52.235Z,7.65
2017-11-28T12:15:19.628Z,7.70
2017-11-28T12:17:47.039Z,7.85
2017-11-28T12:20:14.499Z,7.80
2017-11-28T12:22:41.964Z,7.92
2017-11-28T12:25:09.348Z,7.64
2017-11-28T12:27:36.727Z,7.48
2017-11-28T12:30:04.123Z,7.62
2017-11-28T12:32:32.399Z,7.62
2017-11-28T12:34:59.783Z,7.65
2017-11-28T12:37:27.211Z,7.70
2017-11-28T12:39:54.595Z,7.71
2017-11-28T12:42:21.971Z,7.71
2017-11-28T12:44:49.355Z,7.65
2017-11-28T12:47:16.722Z,7.75
2017-11-28T12:49:44.103Z,7.84
2017-11-28T12:52:11.519Z,7.82
2017-11-28T12:54:38.991Z,7.90
2017-11-28T12:57:06.367Z,7.79
2017-11-28T12:59:33.803Z,7.76
2017-11-28T13:02:01.260Z,7.95
2017-11-28T13:04:28.660Z,8.05
2017-11-28T13:06:56.062Z,7.89
2017-11-28T13:09:23.533Z,7.99
2017-11-28T13:11:50.983Z,7.98
2017-11-28T13:14:18.447Z,8.01
2017-11-28T13:16:45.892Z,7.87
2017-11-28T13:19:13.279Z,7.98
2017-11-28T13:21:40.658Z,8.07
2017-11-28T13:24:08.040Z,7.95
2017-11-28T13:26:35.415Z,7.97
2017-11-28T13:29:02.810Z,8.01
2017-11-28T13:31:30.204Z,7.89
2017-11-28T13:33:57.589Z,7.92
2017-11-28T13:36:24.955Z,7.73
2017-11-28T13:38:52.392Z,7.80
2017-11-28T13:41:19.779Z,7.87
2017-11-28T13:43:47.159Z,7.78
2017-11-28T13:46:14.544Z,7.70
2017-11-28T13:48:41.933Z,7.70
2017-11-28T13:51:09.366Z,7.90
2017-11-28T13:53:36.754Z,7.85
2017-11-28T13:56:04.128Z,7.96
2017-11-28T13:58:31.529Z,7.84
2017-11-28T14:00:58.907Z,7.84
2017-11-28T14:03:26.292Z,7.95
2017-11-28T14:05:53.684Z,7.84
2017-11-28T14:08:21.074Z,8.00
2017-11-28T14:10:48.450Z,8.14
2017-11-28T14:13:15.832Z,8.12
2017-11-28T14:15:43.216Z,7.91
2017-11-28T14:18:10.606Z,7.96
2017-11-28T14:20:38.235Z,7.98
2017-11-28T14:23:11.350Z,8.04
2017-11-28T14:25:40.992Z,7.88
2017-11-28T14:28:12.905Z,7.81
2017-11-28T14:30:42.730Z,7.59
2017-11-28T14:33:14.060Z,7.67
2017-11-28T14:35:44.788Z,7.70
2017-11-28T14:38:12.220Z,7.56
2017-11-28T14:40:39.564Z,7.53
2017-11-28T14:43:11.261Z,7.52
2017-11-28T14:45:40.981Z,7.62
2017-11-28T14:48:08.355Z,7.66
2017-11-28T14:50:41.251Z,7.81
2017-11-28T14:53:08.625Z,7.79
2017-11-28T14:55:41.491Z,7.73
2017-11-28T14:58:25.443Z,7.71
2017-11-28T15:04:19.293Z,7.60
2017-11-28T15:07:02.448Z,7.69
2017-11-28T15:09:35.375Z,7.71
2017-11-28T15:12:19.549Z,7.59
2017-11-28T15:17:54.537Z,7.61
2017-11-28T15:20:27.607Z,7.60
2017-11-28T15:22:54.981Z,7.58
2017-11-28T15:25:22.376Z,7.43
2017-11-28T15:27:49.748Z,7.48
2017-11-28T15:30:17.128Z,7.43
2017-11-28T15:32:44.505Z,7.47
2017-11-28T15:35:11.960Z,7.38
2017-11-28T15:37:39.347Z,7.29
2017-11-28T15:40:06.724Z,7.33
2017-11-28T15:42:34.108Z,7.43
2017-11-28T15:45:01.587Z,7.46
2017-11-28T15:47:28.984Z,7.44
2017-11-28T15:49:56.360Z,7.35
2017-11-28T15:52:23.740Z,7.38
2017-11-28T15:54:51.116Z,7.35
2017-11-28T15:57:18.508Z,7.18
2017-11-28T15:59:45.890Z,7.30
2017-11-28T16:02:13.284Z,7.38
2017-11-28T16:04:40.682Z,7.18
2017-11-28T16:07:08.071Z,7.18
2017-11-28T16:09:35.553Z,7.20
2017-11-28T16:12:02.935Z,7.34
2017-11-28T16:14:30.311Z,7.34
2017-11-28T16:16:57.730Z,7.37
2017-11-28T16:19:25.096Z,7.23
2017-11-28T16:21:52.478Z,7.35
2017-11-28T16:24:19.956Z,7.25
2017-11-28T16:26:47.350Z,7.13
2017-11-28T16:29:14.730Z,7.01
2017-11-28T16:31:42.099Z,7.01
2017-11-28T16:34:09.584Z,6.87
2017-11-28T16:36:36.960Z,6.80
2017-11-28T16:39:04.347Z,6.95
2017-11-28T16:41:31.731Z,6.81
2017-11-28T16:43:59.121Z,6.74
2017-11-28T16:46:26.495Z,6.67
2017-11-28T16:48:53.911Z,6.66
2017-11-28T16:51:21.292Z,6.50
2017-11-28T16:53:48.673Z,6.47
2017-11-28T16:56:16.055Z,6.35
2017-11-28T16:58:43.436Z,6.45
2017-11-28T17:01:10.855Z,6.36
2017-11-28T17:03:38.240Z,6.37
2017-11-28T17:06:05.625Z,6.35
2017-11-28T17:08:33.014Z,6.34
2017-11-28T17:11:00.392Z,6.23
2017-11-28T17:13:27.782Z,6.17
2017-11-28T17:15:55.156Z,6.28
2017-11-28T17:18:22.561Z,6.41
2017-11-28T17:20:49.990Z,6.46
2017-11-28T17:23:17.435Z,6.45
2017-11-28T17:25:44.832Z,6.40
2017-11-28T17:28:12.251Z,6.26
2017-11-28T17:30:39.636Z,6.33
2017-11-28T17:33:07.056Z,6.23
2017-11-28T17:35:34.436Z,6.31
2017-11-28T17:38:01.819Z,6.23
2017-11-28T17:40:29.203Z,6.29
2017-11-28T17:42:56.679Z,6.37
2017-11-28T17:45:24.079Z,6.29
2017-11-28T17:47:51.447Z,6.08
2017-11-28T17:50:18.860Z,6.11
2017-11-28T17:52:46.222Z,6.10
2017-11-28T17:55:13.644Z,5.96
2017-11-28T17:57:40.996Z,5.57
2017-11-28T18:00:08.389Z,5.74
2017-11-28T18:02:35.822Z,5.76
2017-11-28T18:05:03.195Z,5.84
2017-11-28T18:07:30.584Z,5.98
2017-11-28T18:09:57.956Z,5.96
2017-11-28T18:12:25.350Z,6.05
2017-11-28T18:14:52.739Z,6.19
2017-11-28T18:17:20.159Z,6.19
2017-11-28T18:19:47.552Z,6.30
2017-11-28T18:22:14.940Z,6.14
2017-11-28T18:24:42.364Z,6.17
2017-11-28T18:27:09.753Z,6.15
2017-11-28T18:29:37.228Z,5.94
2017-11-28T18:32:04.612Z,6.02
2017-11-28T18:34:31.992Z,6.08
2017-11-28T18:36:59.375Z,6.00
2017-11-28T18:39:26.756Z,5.94
2017-11-28T18:41:54.143Z,5.93
2017-11-28T18:44:21.531Z,6.04
2017-11-28T18:46:48.916Z,5.92
2017-11-28T18:49:16.369Z,5.91
2017-11-28T18:51:43.761Z,6.06
2017-11-28T18:54:11.180Z,6.05
2017-11-28T18:56:38.578Z,6.04
2017-11-28T18:59:05.962Z,5.99
2017-11-28T19:01:33.378Z,6.06
2017-11-28T19:04:00.802Z,6.02
2017-11-28T19:06:28.250Z,6.09
2017-11-28T19:08:55.683Z,6.01
2017-11-28T19:11:23.067Z,6.17
2017-11-28T19:13:50.455Z,6.31
2017-11-28T19:16:17.837Z,6.22
2017-11-28T19:18:45.227Z,6.36
2017-11-28T19:21:12.692Z,6.14
2017-11-28T19:23:40.075Z,6.20
2017-11-28T19:26:07.500Z,6.03
2017-11-28T19:28:34.895Z,6.23
2017-11-28T19:31:02.310Z,6.23
2017-11-28T19:33:29.699Z,6.12
2017-11-28T19:35:57.093Z,6.27
2017-11-28T19:38:24.492Z,6.18
2017-11-28T19:40:51.866Z,6.35
2017-11-28T19:43:19.264Z,6.21
2017-11-28T19:45:46.660Z,6.06
2017-11-28T19:48:14.072Z,6.02
2017-11-28T19:50:41.480Z,6.12
2017-11-28T19:53:08.868Z,6.00
2017-11-28T19:55:36.264Z,6.09
2017-11-28T19:58:03.663Z,6.15
2017-11-28T20:00:31.072Z,6.06
2017-11-28T20:02:58.464Z,6.00
2017-11-28T20:05:25.859Z,6.03
2017-11-28T20:07:53.254Z,6.06
2017-11-28T20:10:20.650Z,6.22
2017-11-28T20:12:48.036Z,6.30
2017-11-28T20:15:15.435Z,6.38
2017-11-28T20:17:42.836Z,6.16
2017-11-28T20:20:10.242Z,6.15
2017-11-28T20:22:37.628Z,6.20
2017-11-28T20:25:05.011Z,6.12
2017-11-28T20:27:32.395Z,5.96
2017-11-28T20:29:59.819Z,5.91
2017-11-28T20:32:27.211Z,5.78
2017-11-28T20:34:54.620Z,5.78
2017-11-28T20:37:22.080Z,5.69
2017-11-28T20:39:49.467Z,5.78
2017-11-28T20:42:16.876Z,5.81
2017-11-28T20:44:44.259Z,5.68
2017-11-28T20:47:11.696Z,5.66
2017-11-28T20:49:39.108Z,5.82
2017-11-28T20:52:06.510Z,5.67
2017-11-28T20:54:33.907Z,5.58
2017-11-28T20:57:01.297Z,5.48
2017-11-28T20:59:28.765Z,5.65
2017-11-28T21:01:56.163Z,5.79
2017-11-28T21:04:23.580Z,5.77
2017-11-28T21:06:51.043Z,5.74
2017-11-28T21:09:18.512Z,5.72
2017-11-28T21:11:45.911Z,5.61
2017-11-28T21:14:13.324Z,5.72
2017-11-28T21:16:40.711Z,5.73
2017-11-28T21:19:08.104Z,5.71
2017-11-28T21:21:35.590Z,5.69
2017-11-28T21:24:02.970Z,5.69
2017-11-28T21:26:30.364Z,5.76
2017-11-28T21:28:57.757Z,5.85
2017-11-28T21:31:25.152Z,5.77
2017-11-28T21:33:52.532Z,5.60
2017-11-28T21:36:19.928Z,5.70
2017-11-28T21:38:47.321Z,5.65
2017-11-28T21:41:14.708Z,5.55
2017-11-28T21:43:42.098Z,5.50
2017-11-28T21:46:09.524Z,5.61
2017-11-28T21:48:36.924Z,5.64
2017-11-28T21:51:04.324Z,5.69
2017-11-28T21:53:31.706Z,5.69
2017-11-28T21:55:59.100Z,5.73
2017-11-28T21:58:26.552Z,5.63
2017-11-28T22:00:54.052Z,5.60
2017-11-28T22:03:21.444Z,5.58
2017-11-28T22:05:48.835Z,5.63
2017-11-28T22:08:16.263Z,5.55
2017-11-28T22:10:43.651Z,5.59
2017-11-28T22:13:11.045Z,5.52
2017-11-28T22:15:38.427Z,5.63
2017-11-28T22:18:05.846Z,5.45
2017-11-28T22:20:33.232Z,5.50
2017-11-28T22:23:00.624Z,5.51
2017-11-28T22:25:28.016Z,5.30
2017-11-28T22:27:55.470Z,5.34
2017-11-28T22:30:22.857Z,5.37
2017-11-28T22:32:50.361Z,5.22
2017-11-28T22:35:17.745Z,5.28
2017-11-28T22:37:45.147Z,5.41
2017-11-28T22:40:12.608Z,5.48
2017-11-28T22:42:40.058Z,5.40
2017-11-28T22:45:07.448Z,5.47
2017-11-28T22:47:34.851Z,5.36
2017-11-28T22:50:02.241Z,5.45
2017-11-28T22:52:29.697Z,5.41
2017-11-28T22:54:57.084Z,5.35
2017-11-28T22:57:24.471Z,5.25
2017-11-28T22:59:51.863Z,5.27
2017-11-28T23:02:19.251Z,5.47
2017-11-28T23:04:46.635Z,5.50
2017-11-28T23:07:14.107Z,5.32
2017-11-28T23:09:41.570Z,5.35
2017-11-28T23:12:09.055Z,5.25
2017-11-28T23:14:46.265Z,5.37
2017-11-28T23:17:13.664Z,5.47
2017-11-28T23:19:41.048Z,5.51
2017-11-28T23:22:08.443Z,5.43
2017-11-28T23:24:35.835Z,5.38
2017-11-28T23:27:03.220Z,5.29
2017-11-28T23:29:30.615Z,5.22
2017-11-28T23:31:58.092Z,5.37
2017-11-28T23:34:25.498Z,5.27
2017-11-28T23:36:52.928Z,5.35
2017-11-28T23:39:20.328Z,5.44
2017-11-28T23:41:47.723Z,5.57
2017-11-28T23:44:15.123Z,5.41
2017-11-28T23:46:42.512Z,5.57
2017-11-28T23:49:09.907Z,5.54
2017-11-28T23:51:37.292Z,5.60
2017-11-28T23:54:04.795Z,5.77
2017-11-28T23:56:32.256Z,5.73
2017-11-28T23:58:59.708Z,5.69
